createdAt,value
2018-09-19T09:30:35.379Z,26.29
2018-09-19T09:40:35.353Z,26.79
2018-09-19T09:50:35.214Z,27.40
2018-09-19T10:00:35.151Z,28.05
2018-09-19T10:10:35.280Z,26.84
2018-09-19T10:20:35.783Z,27.54
2018-09-19T10:30:35.198Z,26.12
2018-09-19T10:40:35.317Z,27.11
2018-09-19T10:50:35.760Z,28.52
2018-09-19T11:00:35.241Z,27.32
2018-09-19T11:10:35.201Z,27.08
2018-09-19T11:20:35.153Z,26.96
2018-09-19T11:30:35.233Z,29.50
2018-09-19T11:40:35.147Z,28.19
2018-09-19T11:50:35.334Z,27.84
2018-09-19T12:00:35.154Z,28.48
2018-09-19T12:10:35.247Z,29.22
2018-09-19T12:20:35.349Z,28.35
2018-09-19T12:30:35.285Z,28.88
2018-09-19T12:40:35.449Z,28.62
2018-09-19T12:50:35.249Z,28.99
2018-09-19T13:00:35.288Z,29.46
2018-09-19T13:10:35.158Z,29.76
2018-09-19T13:20:35.374Z,29.16
2018-09-19T13:30:35.218Z,28.95
2018-09-19T13:40:35.193Z,29.16
2018-09-19T13:50:35.278Z,29.39
2018-09-19T14:00:36.135Z,28.98
2018-09-19T14:10:35.240Z,29.10
2018-09-19T14:20:35.222Z,29.11
2018-09-19T14:30:35.379Z,29.35
2018-09-19T14:40:37.247Z,28.80
2018-09-19T14:50:37.855Z,29.85
2018-09-19T15:00:35.286Z,29.40
2018-09-19T15:10:35.523Z,29.14
2018-09-19T15:20:35.417Z,30.28
2018-09-19T15:30:35.297Z,29.53
2018-09-19T15:40:35.272Z,28.19
2018-09-19T15:50:36.032Z,28.98
2018-09-19T16:00:35.294Z,28.72
2018-09-19T16:10:35.353Z,28.90
2018-09-19T16:20:35.278Z,28.55
2018-09-19T16:30:35.327Z,26.68
2018-09-19T16:40:35.227Z,26.43
2018-09-19T16:50:35.291Z,25.63
2018-09-19T17:00:35.266Z,25.37
2018-09-19T17:10:35.309Z,24.97
2018-09-19T17:20:35.306Z,24.69
2018-09-19T17:30:35.318Z,24.25
2018-09-19T17:40:36.087Z,23.72
2018-09-19T17:50:35.291Z,23.39
2018-09-19T18:00:35.597Z,23.04
2018-09-19T18:10:35.336Z,22.71
2018-09-19T18:20:35.380Z,22.38
2018-09-19T18:30:35.457Z,22.07
2018-09-19T18:40:35.372Z,21.74
2018-09-19T18:50:35.394Z,21.62
2018-09-19T19:00:35.955Z,21.44
2018-09-19T19:10:35.367Z,21.28
2018-09-19T19:20:35.324Z,21.07
2018-09-19T19:30:35.460Z,21.09
2018-09-19T19:40:35.368Z,20.83
2018-09-19T19:50:35.350Z,20.48
2018-09-19T20:00:35.344Z,20.28
2018-09-19T20:10:35.446Z,20.16
2018-09-19T20:20:35.368Z,19.97
2018-09-19T20:30:36.526Z,19.88
2018-09-19T20:40:35.328Z,19.81
2018-09-19T20:50:36.426Z,19.78
2018-09-19T21:00:35.321Z,19.62
2018-09-19T21:10:35.420Z,19.45
2018-09-19T21:20:35.365Z,19.34
2018-09-19T21:30:35.338Z,19.16
2018-09-19T21:40:35.253Z,19.00
2018-09-19T21:50:35.374Z,18.83
2018-09-19T22:00:35.360Z,18.80
2018-09-19T22:10:35.480Z,18.73
2018-09-19T22:20:35.389Z,18.69
2018-09-19T22:30:35.362Z,18.68
2018-09-19T22:40:35.379Z,18.67
2018-09-19T22:50:35.370Z,18.65
2018-09-19T23:00:35.392Z,18.53
2018-09-19T23:10:35.459Z,18.44
2018-09-19T23:20:35.410Z,18.38
2018-09-19T23:30:35.437Z,18.33
2018-09-19T23:40:35.431Z,18.23
2018-09-19T23:50:35.342Z,18.24
